createdAt,value
2023-01-05T00:00:14.567Z,2.50
2023-01-05T00:05:17.164Z,1.90
2023-01-05T00:10:38.715Z,2.00
2023-01-05T00:15:59.298Z,1.70
2023-01-05T00:21:21.320Z,1.55
2023-01-05T00:26:23.060Z,1.30
2023-01-05T00:31:25.017Z,1.17
2023-01-05T00:36:26.808Z,1.50
2023-01-05T00:41:28.563Z,1.98
2023-01-05T00:46:30.469Z,2.10
2023-01-05T00:51:32.214Z,2.50
2023-01-05T00:56:34.064Z,2.70
2023-01-05T01:01:35.904Z,2.95
2023-01-05T01:06:37.794Z,3.33
2023-01-05T01:11:40.187Z,3.65
2023-01-05T01:16:42.994Z,3.55
2023-01-05T01:21:45.033Z,3.10
2023-01-05T01:26:47.236Z,2.38
2023-01-05T01:31:50.954Z,1.90
2023-01-05T01:36:55.857Z,2.03
2023-01-05T01:42:01.819Z,2.22
2023-01-05T01:47:03.763Z,2.20
2023-01-05T01:52:06.377Z,2.28
2023-01-05T01:57:11.070Z,2.60
2023-01-05T02:02:13.630Z,2.10
2023-01-05T02:07:16.465Z,2.10
2023-01-05T02:12:58.548Z,2.15
2023-01-05T02:18:24.922Z,2.35
2023-01-05T02:24:03.344Z,2.88
2023-01-05T02:29:38.939Z,3.35
2023-01-05T02:34:50.869Z,4.10
2023-01-05T02:39:59.925Z,4.45
2023-01-05T02:45:06.287Z,5.05
2023-01-05T02:50:14.306Z,4.90
2023-01-05T02:55:22.882Z,3.95
2023-01-05T03:00:36.832Z,4.05
2023-01-05T03:05:44.369Z,4.13
2023-01-05T03:11:19.209Z,4.30
2023-01-05T03:16:27.880Z,4.07
2023-01-05T03:21:51.021Z,4.30
2023-01-05T03:27:11.784Z,3.30
2023-01-05T03:32:40.729Z,2.30
2023-01-05T03:37:50.905Z,1.90
2023-01-05T03:42:53.940Z,2.13
2023-01-05T03:47:56.679Z,1.83
2023-01-05T03:53:01.940Z,1.40
2023-01-05T03:58:05.927Z,1.40
2023-01-05T04:03:10.450Z,1.50
2023-01-05T04:08:13.355Z,1.42
2023-01-05T04:13:15.202Z,1.45
2023-01-05T04:18:18.365Z,1.30
2023-01-05T04:23:21.281Z,1.65
2023-01-05T04:28:23.727Z,1.15
2023-01-05T04:33:27.395Z,1.25
2023-01-05T04:38:29.984Z,1.27
2023-01-05T04:43:32.196Z,0.95
2023-01-05T04:48:36.176Z,1.10
2023-01-05T04:53:39.530Z,0.90
2023-01-05T04:58:44.294Z,1.20
2023-01-05T05:03:47.124Z,0.80
2023-01-05T05:08:52.620Z,1.10
2023-01-05T05:13:54.533Z,1.10
2023-01-05T05:18:57.580Z,1.17
2023-01-05T05:24:02.127Z,1.35
2023-01-05T05:29:04.700Z,1.00
2023-01-05T05:34:06.447Z,1.38
2023-01-05T05:39:08.485Z,0.90
2023-01-05T05:44:10.236Z,0.90
2023-01-05T05:49:11.986Z,1.52
2023-01-05T05:54:13.810Z,1.52
2023-01-05T05:59:15.575Z,1.40
2023-01-05T06:04:18.326Z,1.20
2023-01-05T06:09:20.141Z,0.95
2023-01-05T06:14:22.009Z,1.10
2023-01-05T06:19:23.741Z,1.33
2023-01-05T06:24:25.563Z,1.10
2023-01-05T06:29:27.269Z,2.40
2023-01-05T06:34:28.992Z,1.80
2023-01-05T06:39:30.890Z,1.60
2023-01-05T06:44:32.641Z,1.55
2023-01-05T06:49:34.388Z,1.63
2023-01-05T06:54:36.125Z,1.55
2023-01-05T06:59:37.829Z,1.63
2023-01-05T07:04:39.520Z,1.55
2023-01-05T07:09:41.602Z,1.63
2023-01-05T07:14:43.790Z,1.73
2023-01-05T07:19:45.578Z,1.60
2023-01-05T07:24:47.326Z,1.30
2023-01-05T07:29:49.343Z,3.13
2023-01-05T07:34:55.787Z,1.65
2023-01-05T07:39:57.697Z,1.63
2023-01-05T07:44:59.456Z,1.80
2023-01-05T07:50:01.888Z,1.65
2023-01-05T07:55:03.828Z,2.10
2023-01-05T08:00:08.385Z,1.60
2023-01-05T08:05:16.010Z,1.48
2023-01-05T08:10:30.044Z,1.65
2023-01-05T08:15:31.902Z,1.42
2023-01-05T08:20:33.831Z,1.88
2023-01-05T08:25:35.609Z,1.30
2023-01-05T08:30:37.588Z,1.33
2023-01-05T08:35:44.323Z,1.65
2023-01-05T08:40:46.096Z,1.20
2023-01-05T08:45:50.108Z,1.20
2023-01-05T08:50:51.933Z,1.58
2023-01-05T08:55:53.793Z,1.33
2023-01-05T09:00:55.606Z,2.00
2023-01-05T09:06:02.412Z,1.67
2023-01-05T09:11:22.222Z,1.85
2023-01-05T09:17:06.024Z,1.20
2023-01-05T09:21:49.449Z,1.70
2023-01-05T09:26:51.337Z,1.75
2023-01-05T09:31:53.174Z,1.60
2023-01-05T09:36:54.977Z,1.60
2023-01-05T09:42:00.689Z,1.35
2023-01-05T09:47:15.297Z,1.38
2023-01-05T09:52:21.271Z,1.30
2023-01-05T09:57:27.080Z,1.13
2023-01-05T10:02:43.238Z,1.75
2023-01-05T10:08:00.425Z,1.70
2023-01-05T10:13:03.995Z,1.48
2023-01-05T10:18:18.429Z,1.23
2023-01-05T10:23:50.793Z,1.52
2023-01-05T10:28:52.672Z,1.10
2023-01-05T10:34:07.164Z,1.30
2023-01-05T10:39:35.668Z,1.25
2023-01-05T10:44:53.260Z,1.48
2023-01-05T10:49:55.087Z,1.52
2023-01-05T10:55:01.762Z,1.33
2023-01-05T11:00:10.121Z,1.25
2023-01-05T11:05:11.952Z,1.05
2023-01-05T11:10:51.694Z,1.73
2023-01-05T11:15:56.890Z,1.50
2023-01-05T11:21:14.034Z,1.55
2023-01-05T11:26:23.635Z,1.25
2023-01-05T11:31:34.387Z,1.65
2023-01-05T11:36:37.198Z,1.75
2023-01-05T11:41:38.979Z,1.40
2023-01-05T11:46:43.132Z,1.20
2023-01-05T11:56:46.871Z,1.27
2023-01-05T12:01:58.559Z,1.40
2023-01-05T12:07:17.204Z,1.30
2023-01-05T12:12:40.488Z,1.38
2023-01-05T12:18:08.094Z,1.80
2023-01-05T12:23:39.744Z,1.45
2023-01-05T12:29:50.891Z,1.80
2023-01-05T12:34:18.883Z,1.60
2023-01-05T12:39:58.724Z,1.55
2023-01-05T12:45:06.257Z,1.70
2023-01-05T12:50:22.990Z,1.60
2023-01-05T12:55:29.356Z,1.70
2023-01-05T13:00:34.989Z,1.83
2023-01-05T13:05:51.605Z,3.13
2023-01-05T13:11:06.444Z,1.50
2023-01-05T13:16:20.185Z,2.08
2023-01-05T13:21:23.684Z,2.33
2023-01-05T13:26:25.460Z,2.23
2023-01-05T13:31:44.230Z,2.40
2023-01-05T13:37:21.122Z,2.58
2023-01-05T13:42:47.647Z,1.90
2023-01-05T13:53:27.374Z,2.33
2023-01-05T13:58:41.929Z,1.70
2023-01-05T14:03:53.537Z,2.53
2023-01-05T14:09:08.757Z,2.13
2023-01-05T14:24:47.541Z,2.10
2023-01-05T14:35:19.981Z,2.72
2023-01-05T14:40:25.348Z,2.28
2023-01-05T14:45:32.501Z,2.80
2023-01-05T14:50:42.621Z,2.70
2023-01-05T14:55:53.717Z,2.92
2023-01-05T15:00:58.315Z,2.80
2023-01-05T15:06:08.295Z,3.38
2023-01-05T15:11:28.945Z,2.30
2023-01-05T15:17:14.272Z,2.10
2023-01-05T15:22:39.229Z,1.73
2023-01-05T15:28:05.819Z,2.10
2023-01-05T15:33:20.086Z,2.67
2023-01-05T15:38:24.403Z,2.40
2023-01-05T15:43:26.428Z,2.40
2023-01-05T15:48:33.259Z,2.10
2023-01-05T15:53:40.708Z,2.00
2023-01-05T15:58:45.945Z,2.28
2023-01-05T16:03:48.715Z,2.63
2023-01-05T16:08:53.558Z,3.47
2023-01-05T16:14:06.988Z,2.40
2023-01-05T16:19:25.048Z,2.75
2023-01-05T16:24:43.049Z,3.03
2023-01-05T16:29:47.374Z,2.90
2023-01-05T16:40:01.272Z,5.32
2023-01-05T16:45:06.500Z,3.10
2023-01-05T16:50:20.432Z,2.63
2023-01-05T16:55:36.231Z,4.25
2023-01-05T17:00:38.670Z,3.58
2023-01-05T17:05:40.402Z,2.78
2023-01-05T17:10:42.714Z,2.63
2023-01-05T17:15:47.092Z,2.97
2023-01-05T17:30:55.127Z,2.42
2023-01-05T17:35:57.155Z,2.85
2023-01-05T17:40:58.917Z,2.60
2023-01-05T17:46:00.711Z,2.13
2023-01-05T17:51:02.450Z,3.80
2023-01-05T17:56:04.535Z,3.80
2023-01-05T18:01:06.588Z,6.03
2023-01-05T18:06:09.217Z,3.28
2023-01-05T18:11:11.079Z,2.40
2023-01-05T18:16:13.748Z,3.05
2023-01-05T18:21:15.581Z,4.05
2023-01-05T18:26:17.315Z,3.40
2023-01-05T18:31:19.174Z,2.40
2023-01-05T18:36:21.338Z,3.50
2023-01-05T18:41:24.601Z,3.70
2023-01-05T18:46:26.423Z,2.80
2023-01-05T18:51:28.332Z,2.80
2023-01-05T18:56:30.300Z,3.47
2023-01-05T19:01:32.471Z,3.50
2023-01-05T19:06:34.291Z,3.83
2023-01-05T19:11:37.864Z,3.10
2023-01-05T19:16:39.878Z,3.57
2023-01-05T19:21:45.142Z,3.53
2023-01-05T19:26:48.771Z,3.65
2023-01-05T19:31:50.558Z,3.73
2023-01-05T19:36:52.658Z,5.15
2023-01-05T19:41:54.401Z,4.20
2023-01-05T19:46:56.193Z,5.65
2023-01-05T19:51:58.127Z,4.88
2023-01-05T19:57:00.259Z,4.32
2023-01-05T20:02:04.499Z,10.82
2023-01-05T20:07:10.113Z,5.05
2023-01-05T20:12:15.178Z,3.35
2023-01-05T20:17:18.397Z,3.10
2023-01-05T20:22:20.207Z,3.40
2023-01-05T20:27:21.992Z,3.65
2023-01-05T20:32:25.887Z,3.42
2023-01-05T20:37:29.717Z,3.95
2023-01-05T20:42:31.568Z,4.25
2023-01-05T20:47:43.079Z,4.28
2023-01-05T20:52:49.728Z,4.28
2023-01-05T20:57:52.160Z,4.85
2023-01-05T21:02:54.056Z,3.97
2023-01-05T21:07:55.836Z,3.83
2023-01-05T21:13:30.402Z,4.30
2023-01-05T21:18:21.387Z,4.47
2023-01-05T21:23:23.601Z,3.70
2023-01-05T21:28:25.335Z,4.10
2023-01-05T21:33:27.061Z,4.38
2023-01-05T21:39:00.842Z,3.50
2023-01-05T21:43:50.697Z,3.63
2023-01-05T21:48:52.393Z,2.85
2023-01-05T21:54:29.551Z,3.15
2023-01-05T21:59:31.939Z,3.17
2023-01-05T22:04:33.812Z,3.70
2023-01-05T22:09:36.615Z,3.63
2023-01-05T22:14:39.030Z,4.28
2023-01-05T22:19:40.761Z,4.65
2023-01-05T22:24:42.804Z,4.45
2023-01-05T22:29:44.537Z,4.60
2023-01-05T22:34:46.433Z,4.18
2023-01-05T22:39:48.150Z,5.10
2023-01-05T22:44:49.980Z,4.88
2023-01-05T22:49:51.678Z,5.10
2023-01-05T22:54:53.389Z,5.10
2023-01-05T22:59:55.061Z,5.20
2023-01-05T23:04:56.790Z,6.20
2023-01-05T23:09:58.570Z,7.07
2023-01-05T23:15:00.270Z,6.65
2023-01-05T23:20:02.113Z,7.93
2023-01-05T23:25:04.051Z,7.53
2023-01-05T23:30:06.425Z,9.00
2023-01-05T23:35:08.738Z,9.38
2023-01-05T23:40:10.933Z,9.18
2023-01-05T23:45:14.056Z,8.70
2023-01-05T23:50:15.902Z,8.77
2023-01-05T23:55:17.670Z,8.00
